GB-0306 weather

Lymm Dam Airstrip
Lymm, England, United Kingdom

Public forecast

Using degrees Celsius for public forecast. Weather courtesy of forecast.io.

Closest aviation weather report (METAR) to Lymm Dam Airstrip

Closest report is Manchester Airport, 7.3 nm (13.5 km) E. Retrieved 2019/11/18 10:20 UTC (0 seconds ago):

EGCC 181020Z AUTO 26002KT 9999 BKN039 03/02 Q1018 NOSIG

Closest aviation forecast (TAF) to Lymm Dam Airstrip

Closest forecast is Manchester Airport, 7.3 nm (13.5 km) E. Retrieved 2019/11/18 06:00 UTC (4 hours ago):

TAF EGCC 180501Z 1806/1912 VRB03KT 9999 FEW035 TEMPO 1806/1809 3000 BR PROB30 TEMPO 1806/1808 0300 FG FZFG BECMG 1818/1821 3000 BR PROB40 1821/1910 0300 FZFG VV/// BECMG 1910/1912 8000 NSW